Rapid River, Michigan
Current Conditions -  °F | °C
As of 9:55 PM on Saturday 25 Oct 2014 (Local Time) from KESC Reporting Station
Clear Clear  
Wind Chill: 52°   Ceiling: Unl
Heat Index: 52°   Visibility: 10mi
Dew Point: 27°   Wind: 9mph
Humidity: 38%   Direction: 300°WNW
Pressure: 29.82"   Gusts: 18mph
Location:  45.93°N, 86.97°W
Report Text: KESC 260155Z AUTO 30008G16KT 10SM CLR 11/M03 A2982 RMK AO1
Loading
Personal Weather Stations






























Interactive Weather Map
Tropical Storm Tracking
New forecast layout! Learn more

10-Day Weather Forecast

Advertisements
Track Severe Weather on mobile